Time;durP1;ratioP1;P1;durP2;ratioP2;P2;SDS_P1;SDS_P2;PMS_P1;PMS_P2;Temp;Humidity;BMP_temperature;BMP_pressure;BME280_temperature;BME280_humidity;BME280_pressure;Samples;Min_cycle;Max_cycle;Signal;HPM_P1;HPM_P2
2021/06/29 00:00:52;;;;;;;6.80;6.30;;;;;;;19.79;100.00;96223.69;5058013;28;20236;-67
2021/06/29 00:03:17;;;;;;;6.10;5.60;;;;;;;19.66;100.00;96237.75;5075348;28;20669;-67
2021/06/29 00:05:45;;;;;;;6.70;6.20;;;;;;;19.51;100.00;96245.91;5075803;28;20652;-67
2021/06/29 00:08:10;;;;;;;6.60;6.20;;;;;;;19.31;100.00;96236.28;5083143;28;20238;-59
2021/06/29 00:10:36;;;;;;;7.67;7.17;;;;;;;18.90;100.00;96232.41;5077991;28;20982;-67
2021/06/29 00:13:04;;;;;;;8.83;8.13;;;;;;;18.71;100.00;96242.19;5095306;28;20177;-59
2021/06/29 00:15:30;;;;;;;9.90;9.10;;;;;;;18.49;100.00;96242.63;5095807;28;20166;-59
2021/06/29 00:17:55;;;;;;;10.30;9.60;;;;;;;18.22;100.00;96243.06;5095678;28;20415;-67
2021/06/29 00:20:21;;;;;;;9.27;8.57;;;;;;;18.34;100.00;96232.84;5095586;28;20564;-59
2021/06/29 00:22:46;;;;;;;9.77;8.97;;;;;;;18.28;100.00;96231.28;5095269;28;20640;-67
2021/06/29 00:25:13;;;;;;;9.03;8.33;;;;;;;18.43;100.00;96228.56;5094333;28;20193;-59
2021/06/29 00:27:40;;;;;;;8.07;7.47;;;;;;;18.35;100.00;96236.31;5075224;28;20179;-59
2021/06/29 00:30:07;;;;;;;24.43;9.00;;;;;;;18.50;100.00;96225.56;5076841;28;20444;-59
2021/06/29 00:32:32;;;;;;;9.63;6.60;;;;;;;18.63;100.00;96210.81;5095107;28;20420;-59
2021/06/29 00:34:58;;;;;;;6.20;5.80;;;;;;;18.97;100.00;96207.03;5095239;28;20420;-59
2021/06/29 00:37:23;;;;;;;6.17;5.67;;;;;;;18.94;100.00;96206.81;5095289;28;20166;-68
2021/06/29 00:39:49;;;;;;;6.27;5.77;;;;;;;19.26;100.00;96212.31;5095238;28;20590;-68
2021/06/29 00:42:14;;;;;;;6.00;5.60;;;;;;;19.67;100.00;96212.66;5094823;28;20181;-59
2021/06/29 00:44:40;;;;;;;5.93;5.53;;;;;;;19.40;100.00;96213.28;5095032;28;20197;-67
2021/06/29 00:47:09;;;;;;;6.50;6.07;;;;;;;19.41;100.00;96217.50;5074978;28;20170;-59
2021/06/29 00:49:34;;;;;;;6.13;5.73;;;;;;;19.48;100.00;96204.63;5074945;28;20260;-68
2021/06/29 00:51:59;;;;;;;5.87;5.47;;;;;;;19.22;100.00;96203.31;5074439;28;20421;-67
2021/06/29 00:54:25;;;;;;;5.17;4.77;;;;;;;19.23;100.00;96194.25;5074648;28;20201;-67
2021/06/29 00:56:50;;;;;;;5.37;4.97;;;;;;;19.00;100.00;96195.84;5074817;28;20177;-59
2021/06/29 00:59:16;;;;;;;5.40;4.90;;;;;;;19.06;100.00;96175.28;5074816;28;20260;-59
2021/06/29 01:01:41;;;;;;;5.27;4.87;;;;;;;19.11;100.00;96169.88;5092937;28;20688;-67
2021/06/29 01:04:06;;;;;;;5.20;4.70;;;;;;;19.11;100.00;96175.19;5080056;28;20201;-59
2021/06/29 01:06:32;;;;;;;5.60;4.80;;;;;;;19.36;100.00;96164.28;5074755;28;20564;-68
2021/06/29 01:08:57;;;;;;;5.20;4.90;;;;;;;19.16;100.00;96167.16;5074471;28;20548;-67
2021/06/29 01:11:23;;;;;;;5.90;5.50;;;;;;;19.40;100.00;96162.63;5083554;28;20215;-58
2021/06/29 01:13:49;;;;;;;5.00;4.70;;;;;;;19.57;100.00;96152.25;5078354;28;20190;-59
2021/06/29 01:16:15;;;;;;;5.13;4.83;;;;;;;19.83;100.00;96155.38;5094539;28;20283;-67
2021/06/29 01:18:43;;;;;;;5.73;5.23;;;;;;;19.79;100.00;96144.50;5094521;28;20166;-59
2021/06/29 01:21:17;;;;;;;4.53;4.23;;;;;;;19.80;100.00;96138.06;5092811;28;20509;-59
2021/06/29 01:23:48;;;;;;;5.43;5.03;;;;;;;19.88;100.00;96116.09;5094035;28;20451;-67
2021/06/29 01:26:28;;;;;;;5.27;4.77;;;;;;;20.03;100.00;96113.19;5094363;28;20423;-59
2021/06/29 01:29:04;;;;;;;4.30;4.00;;;;;;;20.13;100.00;96105.00;5094263;28;20454;-68
2021/06/29 01:31:31;;;;;;;5.67;4.70;;;;;;;20.19;99.81;96108.41;5094107;28;20400;-60
2021/06/29 01:33:57;;;;;;;4.93;4.63;;;;;;;20.36;99.53;96109.44;5094103;28;20447;-68
2021/06/29 01:36:25;;;;;;;5.50;5.00;;;;;;;20.30;99.15;96107.97;5065932;28;20432;-59
2021/06/29 01:38:52;;;;;;;5.17;4.77;;;;;;;20.44;98.87;96107.97;5073789;28;20502;-68
2021/06/29 01:41:22;;;;;;;6.33;4.90;;;;;;;20.49;98.50;96111.34;5077134;28;20420;-67
2021/06/29 01:44:08;;;;;;;6.17;5.77;;;;;;;20.42;98.17;96110.94;5092918;28;20428;-68
2021/06/29 01:46:37;;;;;;;5.30;5.00;;;;;;;20.48;97.92;96100.97;5073988;28;20420;-67
2021/06/29 01:49:02;;;;;;;5.07;4.67;;;;;;;20.49;98.02;96105.22;5073850;28;20925;-58
2021/06/29 01:51:28;;;;;;;5.13;4.83;;;;;;;20.43;98.11;96133.09;5073561;28;20441;-59
2021/06/29 01:53:54;;;;;;;11.60;5.53;;;;;;;20.12;98.87;96137.31;5073460;28;20603;-67
2021/06/29 01:56:26;;;;;;;5.37;4.97;;;;;;;20.13;98.87;96149.56;5073529;28;20625;-68
2021/06/29 01:58:57;;;;;;;5.67;5.17;;;;;;;20.11;98.91;96157.09;5076367;28;20166;-59
2021/06/29 02:01:23;;;;;;;4.87;4.57;;;;;;;19.90;98.72;96161.94;5080549;28;20436;-68
2021/06/29 02:03:49;;;;;;;4.50;4.20;;;;;;;19.60;100.00;96166.91;5073311;28;20424;-68
2021/06/29 02:06:15;;;;;;;5.10;4.70;;;;;;;20.01;99.27;96182.06;5073469;28;20541;-59
2021/06/29 02:08:41;;;;;;;4.60;4.30;;;;;;;19.81;98.92;96193.00;5073510;28;20167;-68
2021/06/29 02:11:06;;;;;;;5.00;4.60;;;;;;;19.58;100.00;96203.72;5073698;28;20416;-59
2021/06/29 02:13:32;;;;;;;4.50;4.20;;;;;;;19.44;100.00;96199.06;5072952;28;20249;-68
2021/06/29 02:15:58;;;;;;;4.60;4.30;;;;;;;19.43;100.00;96208.16;5080931;28;20182;-59
2021/06/29 02:18:24;;;;;;;5.80;5.30;;;;;;;19.47;100.00;96200.38;5079897;28;20166;-58
2021/06/29 02:20:50;;;;;;;4.67;4.37;;;;;;;19.49;100.00;96196.34;5093548;28;20413;-68
2021/06/29 02:23:16;;;;;;;5.13;4.80;;;;;;;19.79;99.92;96203.16;5092961;28;20466;-59
2021/06/29 02:25:42;;;;;;;4.57;4.37;;;;;;;19.96;99.18;96197.34;5093640;28;20165;-68
2021/06/29 02:28:07;;;;;;;5.50;5.13;;;;;;;20.07;98.92;96202.25;5093665;28;20560;-67
2021/06/29 02:30:33;;;;;;;4.60;4.30;;;;;;;20.20;98.38;96198.09;5093312;28;20213;-68
2021/06/29 02:32:58;;;;;;;4.77;4.47;;;;;;;20.20;98.80;96198.84;5089451;28;20178;-68
2021/06/29 02:35:24;;;;;;;4.60;4.30;;;;;;;20.23;98.63;96192.97;5093319;28;20169;-69
2021/06/29 02:37:49;;;;;;;4.93;4.60;;;;;;;20.39;98.18;96196.16;5093298;28;20181;-68
2021/06/29 02:40:16;;;;;;;4.83;4.53;;;;;;;20.49;97.38;96196.78;5093629;28;20173;-68
2021/06/29 02:42:41;;;;;;;4.77;4.40;;;;;;;20.56;96.98;96199.09;5092892;28;20174;-68
2021/06/29 02:45:08;;;;;;;4.70;4.40;;;;;;;20.51;96.64;96201.06;5093379;28;20760;-68
2021/06/29 02:47:38;;;;;;;6.40;5.37;;;;;;;20.58;94.96;96212.16;5091807;28;20171;-68
2021/06/29 02:50:06;;;;;;;4.80;4.60;;;;;;;20.65;94.55;96225.94;5093152;28;20456;-59
2021/06/29 02:52:32;;;;;;;5.13;4.83;;;;;;;20.56;95.04;96227.69;5092845;28;20457;-59
2021/06/29 02:54:59;;;;;;;5.30;4.90;;;;;;;20.61;95.31;96233.72;5093059;28;20424;-59
2021/06/29 02:57:24;;;;;;;4.63;4.33;;;;;;;20.69;94.92;96238.38;5093397;28;20173;-68
2021/06/29 02:59:49;;;;;;;5.17;4.77;;;;;;;20.68;94.95;96242.16;5093495;28;20874;-68
2021/06/29 03:02:15;;;;;;;6.60;5.33;;;;;;;20.77;94.43;96234.25;5089168;28;20228;-59
2021/06/29 03:04:40;;;;;;;5.60;5.23;;;;;;;20.68;94.94;96233.34;5072996;28;20222;-68
2021/06/29 03:07:06;;;;;;;5.10;4.80;;;;;;;20.66;94.80;96238.19;5073000;28;20228;-68
2021/06/29 03:09:31;;;;;;;5.03;4.60;;;;;;;20.65;95.36;96233.94;5072709;28;20263;-59
2021/06/29 03:11:56;;;;;;;4.30;4.00;;;;;;;20.75;94.93;96225.75;5072603;28;20194;-67
2021/06/29 03:14:22;;;;;;;5.40;4.90;;;;;;;20.57;96.23;96210.56;5072717;28;20553;-59
2021/06/29 03:16:47;;;;;;;5.53;5.03;;;;;;;20.47;97.09;96188.28;5074180;28;20519;-67
2021/06/29 03:19:12;;;;;;;4.50;4.20;;;;;;;20.47;97.23;96177.59;5080605;28;20228;-59
2021/06/29 03:21:38;;;;;;;4.93;4.53;;;;;;;20.44;97.55;96162.19;5072137;28;20171;-68
2021/06/29 03:24:04;;;;;;;6.03;5.33;;;;;;;20.38;98.23;96163.34;5088523;28;20705;-68
2021/06/29 03:26:30;;;;;;;5.73;5.23;;;;;;;20.18;98.19;96194.91;5093600;28;20166;-59
2021/06/29 03:28:55;;;;;;;5.50;5.10;;;;;;;20.18;97.52;96201.03;5096648;28;20444;-59
2021/06/29 03:31:20;;;;;;;5.10;4.70;;;;;;;20.20;98.51;96184.75;5096753;28;20170;-68
2021/06/29 03:33:46;;;;;;;5.10;4.80;;;;;;;20.38;97.58;96181.25;5096376;28;20194;-68
2021/06/29 03:36:12;;;;;;;6.37;5.57;;;;;;;20.45;97.49;96179.00;5096433;28;20540;-67
2021/06/29 03:38:37;;;;;;;6.43;5.83;;;;;;;20.53;96.56;96189.00;5063641;28;20551;-67
2021/06/29 03:41:03;;;;;;;6.63;5.80;;;;;;;20.49;96.29;96196.00;5077315;28;20424;-67
2021/06/29 03:43:28;;;;;;;5.90;5.37;;;;;;;20.58;95.95;96186.25;5096017;28;20678;-68
2021/06/29 03:45:54;;;;;;;5.73;5.13;;;;;;;20.61;95.77;96188.34;5096320;28;20166;-58
2021/06/29 03:48:19;;;;;;;5.57;5.07;;;;;;;20.43;96.25;96187.31;5096247;28;20197;-59
2021/06/29 03:50:44;;;;;;;5.70;5.30;;;;;;;19.85;99.65;96187.88;5096068;28;20229;-59
2021/06/29 03:53:10;;;;;;;5.53;5.03;;;;;;;20.04;99.46;96186.78;5083074;28;20179;-67
2021/06/29 03:55:35;;;;;;;5.37;4.97;;;;;;;19.96;99.94;96182.13;5075833;28;20529;-67
2021/06/29 03:58:01;;;;;;;5.10;4.70;;;;;;;20.12;98.51;96178.16;5075869;28;20170;-59
2021/06/29 04:00:27;;;;;;;7.53;5.67;;;;;;;20.23;98.04;96174.28;5075745;28;20173;-59
2021/06/29 04:02:53;;;;;;;5.53;5.13;;;;;;;20.13;98.43;96166.38;5075386;28;20974;-59
2021/06/29 04:05:18;;;;;;;5.13;4.73;;;;;;;20.19;98.22;96159.91;5075617;28;20174;-59
2021/06/29 04:07:45;;;;;;;5.40;5.10;;;;;;;20.35;98.00;96144.44;5086345;28;20246;-68
2021/06/29 04:10:11;;;;;;;5.40;5.00;;;;;;;20.52;97.11;96133.22;5095853;28;20664;-67
2021/06/29 04:12:36;;;;;;;5.17;4.87;;;;;;;20.54;97.28;96126.50;5095725;28;20464;-59
2021/06/29 04:15:03;;;;;;;5.07;4.50;;;;;;;20.57;96.85;96111.75;5094464;28;20225;-59
2021/06/29 04:17:28;;;;;;;5.10;4.70;;;;;;;20.59;96.88;96082.88;5095746;28;20181;-59
2021/06/29 04:19:54;;;;;;;8.10;5.33;;;;;;;20.61;96.67;96052.16;5094522;28;20428;-68
2021/06/29 04:22:19;;;;;;;5.80;5.40;;;;;;;20.63;96.30;96006.44;5086395;28;20653;-59
2021/06/29 04:24:44;;;;;;;6.00;5.50;;;;;;;20.21;98.64;95957.63;5095261;28;20280;-58
2021/06/29 04:27:10;;;;;;;5.57;5.10;;;;;;;20.09;100.00;95954.59;5075331;28;20175;-68
2021/06/29 04:29:35;;;;;;;6.07;5.67;;;;;;;20.22;99.41;95977.88;5075292;28;20190;-59
2021/06/29 04:32:00;;;;;;;5.87;5.47;;;;;;;20.33;98.67;96005.94;5075055;28;20171;-68
2021/06/29 04:34:26;;;;;;;5.60;5.17;;;;;;;20.48;97.43;96040.38;5075165;28;20309;-68
2021/06/29 04:36:52;;;;;;;6.13;5.43;;;;;;;19.83;98.76;96108.16;5078225;28;20300;-59
2021/06/29 04:39:17;;;;;;;7.20;6.70;;;;;;;18.96;100.00;96120.22;5094279;28;20212;-67
2021/06/29 04:41:42;;;;;;;6.60;6.10;;;;;;;18.97;100.00;96105.06;5094944;28;20174;-67
2021/06/29 04:44:08;;;;;;;5.47;5.07;;;;;;;19.08;100.00;96109.16;5095379;28;20636;-58
2021/06/29 04:46:33;;;;;;;5.63;5.27;;;;;;;18.68;100.00;96121.06;5095181;28;20170;-58
2021/06/29 04:48:59;;;;;;;6.27;5.77;;;;;;;18.81;100.00;96120.41;5095029;28;20550;-59
2021/06/29 04:51:25;;;;;;;6.30;5.80;;;;;;;18.93;100.00;96125.34;5093386;28;20162;-62
2021/06/29 04:53:51;;;;;;;5.60;5.17;;;;;;;18.86;100.00;96108.91;5074682;28;20197;-67
2021/06/29 04:56:19;;;;;;;5.53;5.10;;;;;;;18.93;100.00;96093.38;5074789;28;20584;-58
2021/06/29 04:58:52;;;;;;;5.27;4.87;;;;;;;19.30;100.00;96086.22;5074870;28;20600;-59
2021/06/29 05:01:17;;;;;;;5.77;5.17;;;;;;;19.52;100.00;96093.69;5074721;28;20774;-68
2021/06/29 05:03:43;;;;;;;5.03;4.63;;;;;;;19.64;100.00;96094.03;5074121;28;20515;-67
2021/06/29 05:06:08;;;;;;;5.43;5.13;;;;;;;19.80;100.00;96086.63;5075686;28;20629;-68
2021/06/29 05:08:34;;;;;;;5.20;4.80;;;;;;;19.97;100.00;96098.34;5094709;28;20181;-58
2021/06/29 05:10:59;;;;;;;5.93;5.43;;;;;;;20.06;99.44;96080.59;5094749;28;20229;-58
2021/06/29 05:13:24;;;;;;;6.60;6.10;;;;;;;20.17;98.64;96070.56;5094243;28;20186;-68
2021/06/29 05:15:50;;;;;;;5.30;4.90;;;;;;;20.27;98.15;96073.84;5094744;28;20224;-58
2021/06/29 05:18:16;;;;;;;5.40;4.90;;;;;;;20.29;97.91;96061.00;5094690;28;20215;-68
2021/06/29 05:20:41;;;;;;;5.43;5.03;;;;;;;20.34;98.01;96060.94;5094211;28;20253;-64
2021/06/29 05:23:07;;;;;;;5.13;4.80;;;;;;;20.45;97.73;96064.19;5074015;28;20179;-58
2021/06/29 05:25:32;;;;;;;6.90;5.10;;;;;;;20.31;95.63;96079.38;5074114;28;20177;-58
2021/06/29 05:27:57;;;;;;;4.80;4.40;;;;;;;20.45;95.06;96072.97;5074228;28;20177;-58
2021/06/29 05:30:23;;;;;;;5.77;5.20;;;;;;;20.46;95.35;96063.09;5074160;28;20198;-68
2021/06/29 05:32:48;;;;;;;5.10;4.80;;;;;;;20.42;95.70;96086.94;5055678;28;20210;-67
2021/06/29 05:35:14;;;;;;;4.63;4.27;;;;;;;20.36;95.52;96084.66;5074491;28;20191;-58
2021/06/29 05:37:39;;;;;;;5.40;4.80;;;;;;;20.44;96.03;96082.09;5083835;28;20184;-60
2021/06/29 05:40:06;;;;;;;4.90;4.50;;;;;;;20.60;94.99;96085.25;5081239;28;20542;-59
2021/06/29 05:42:31;;;;;;;5.10;4.60;;;;;;;20.54;95.12;96085.66;5087052;28;20166;-59
2021/06/29 05:44:57;;;;;;;5.17;4.83;;;;;;;20.61;95.15;96102.09;5094244;28;20921;-58
2021/06/29 05:47:22;;;;;;;5.20;4.77;;;;;;;20.44;95.41;96111.44;5093892;28;20648;-67
2021/06/29 05:49:49;;;;;;;4.60;4.30;;;;;;;20.55;94.84;96101.38;5093916;28;20194;-58
2021/06/29 05:52:15;;;;;;;4.73;4.00;;;;;;;20.48;94.12;96106.31;5093633;28;20177;-67
2021/06/29 05:54:42;;;;;;;4.40;4.00;;;;;;;20.34;94.14;96106.31;5082694;28;20440;-67
2021/06/29 05:57:10;;;;;;;3.73;3.53;;;;;;;20.39;94.00;96108.06;5073535;28;20412;-67
2021/06/29 05:59:36;;;;;;;3.97;3.77;;;;;;;20.34;93.84;96113.50;5073560;28;20496;-68
2021/06/29 06:02:01;;;;;;;3.57;3.30;;;;;;;20.39;93.32;96103.53;5073865;28;20437;-68
2021/06/29 06:04:27;;;;;;;3.90;3.50;;;;;;;20.52;93.70;96110.00;5093674;28;20188;-59
2021/06/29 06:06:52;;;;;;;3.50;3.30;;;;;;;20.51;93.14;96094.28;5093638;28;20200;-67
2021/06/29 06:09:17;;;;;;;4.00;3.60;;;;;;;20.58;93.97;96084.00;5093576;28;20197;-59
2021/06/29 06:11:43;;;;;;;3.80;3.60;;;;;;;20.60;93.64;96082.59;5093396;28;20174;-68
2021/06/29 06:14:08;;;;;;;4.10;3.80;;;;;;;20.74;94.08;96088.75;5093468;28;20186;-59
2021/06/29 06:16:33;;;;;;;4.23;3.83;;;;;;;20.75;92.06;96073.50;5093451;28;20624;-68
2021/06/29 06:18:59;;;;;;;3.20;3.00;;;;;;;20.54;91.78;96069.63;5056052;28;20614;-58
2021/06/29 06:21:24;;;;;;;3.73;3.53;;;;;;;20.70;92.30;96063.72;5073218;28;20171;-62
2021/06/29 06:23:50;;;;;;;4.17;3.20;;;;;;;20.72;93.81;96060.75;5073155;28;20195;-68
2021/06/29 06:26:15;;;;;;;4.10;3.80;;;;;;;20.91;94.66;96056.88;5073266;28;20177;-68
2021/06/29 06:28:40;;;;;;;4.00;3.70;;;;;;;20.87;95.16;96063.13;5073373;28;20640;-58
2021/06/29 06:31:06;;;;;;;3.77;3.47;;;;;;;20.86;94.56;96059.66;5073153;28;20167;-59
2021/06/29 06:33:31;;;;;;;3.50;3.30;;;;;;;21.07;94.21;96058.19;5090044;28;20683;-67
2021/06/29 06:35:56;;;;;;;3.47;3.17;;;;;;;21.18;92.75;96048.06;5093680;28;20258;-68
2021/06/29 06:38:22;;;;;;;2.97;2.77;;;;;;;21.13;91.92;96062.34;5093393;28;20185;-59
2021/06/29 06:40:47;;;;;;;3.93;3.47;;;;;;;21.22;91.64;96057.06;5093382;28;20158;-68
2021/06/29 06:43:13;;;;;;;3.20;3.00;;;;;;;21.26;90.54;96050.03;5092795;28;20258;-68
2021/06/29 06:45:38;;;;;;;3.50;3.30;;;;;;;21.33;91.01;96051.22;5088821;28;20213;-60
2021/06/29 06:48:05;;;;;;;3.17;2.97;;;;;;;21.18;90.45;96058.75;5074735;28;20205;-58
2021/06/29 06:50:30;;;;;;;3.37;3.13;;;;;;;20.60;91.44;96053.22;5093250;28;20197;-58
2021/06/29 06:52:56;;;;;;;3.60;3.27;;;;;;;20.83;91.24;96064.81;5092900;28;20404;-68
2021/06/29 06:55:25;;;;;;;3.43;3.20;;;;;;;20.80;91.41;96065.41;5093378;28;20173;-58
2021/06/29 06:57:54;;;;;;;3.20;3.03;;;;;;;20.87;91.02;96058.56;5093375;28;20166;-68
2021/06/29 07:00:21;;;;;;;3.17;2.90;;;;;;;20.95;92.13;96054.41;5093063;28;20407;-59
2021/06/29 07:02:47;;;;;;;3.47;3.17;;;;;;;20.91;91.62;96059.56;5093734;28;20404;-68
2021/06/29 07:05:13;;;;;;;3.47;3.27;;;;;;;20.91;92.45;96059.56;5076822;28;20429;-67
2021/06/29 07:07:38;;;;;;;2.83;2.70;;;;;;;20.96;90.96;96062.13;5088739;28;20170;-58
2021/06/29 07:10:06;;;;;;;2.80;2.53;;;;;;;20.51;89.89;96049.66;5097157;28;20198;-68
2021/06/29 07:12:32;;;;;;;3.17;2.87;;;;;;;20.81;89.88;96051.75;5096799;28;20177;-58
2021/06/29 07:14:57;;;;;;;2.77;2.57;;;;;;;20.78;88.50;96038.97;5096900;28;20436;-59
2021/06/29 07:17:23;;;;;;;2.83;2.73;;;;;;;20.92;90.46;96047.00;5093023;28;20928;-59
2021/06/29 07:19:49;;;;;;;3.13;2.93;;;;;;;21.03;91.09;96035.03;5093506;28;20190;-60
2021/06/29 07:22:15;;;;;;;2.53;2.43;;;;;;;20.72;90.24;96036.72;5082002;28;20269;-68
2021/06/29 07:24:40;;;;;;;5.53;2.60;;;;;;;20.62;90.84;96037.69;5087361;28;20535;-66
2021/06/29 07:27:06;;;;;;;2.60;2.40;;;;;;;20.36;89.43;96040.03;5093288;28;20277;-58
2021/06/29 07:29:32;;;;;;;3.37;2.30;;;;;;;20.40;88.39;96046.38;5073264;28;20275;-63
2021/06/29 07:31:59;;;;;;;2.80;2.60;;;;;;;20.55;89.17;96039.97;5059509;28;20189;-61
2021/06/29 07:34:24;;;;;;;2.83;2.67;;;;;;;20.57;90.83;96037.00;5074335;28;20433;-66
2021/06/29 07:36:49;;;;;;;2.57;2.47;;;;;;;20.44;92.18;96034.03;5093171;28;20422;-66
2021/06/29 07:39:15;;;;;;;2.40;2.00;;;;;;;20.34;88.84;96034.25;5079679;28;20221;-62
2021/06/29 07:41:40;;;;;;;2.50;2.30;;;;;;;20.55;90.32;96028.50;5074733;28;20552;-68
2021/06/29 07:44:06;;;;;;;2.07;1.97;;;;;;;20.37;85.47;96022.97;5041673;28;20187;-69
2021/06/29 07:46:31;;;;;;;2.40;2.20;;;;;;;20.76;87.41;96019.00;5079153;28;20177;-59
2021/06/29 07:48:57;;;;;;;2.70;2.50;;;;;;;20.88;87.32;96013.94;5096066;28;20189;-59
2021/06/29 07:51:22;;;;;;;2.40;2.30;;;;;;;20.79;87.56;96023.75;5096439;28;20257;-59
2021/06/29 07:53:48;;;;;;;1.97;1.87;;;;;;;20.72;85.16;96028.69;5096000;28;20591;-59
2021/06/29 07:56:17;;;;;;;2.23;2.00;;;;;;;20.99;83.61;96021.50;5096371;28;20258;-68
2021/06/29 07:58:43;;;;;;;2.60;2.33;;;;;;;21.35;84.80;96022.28;5096333;28;20170;-58
2021/06/29 08:01:10;;;;;;;2.10;2.00;;;;;;;21.13;84.98;96024.13;5095421;28;20429;-68
2021/06/29 08:03:36;;;;;;;2.17;1.97;;;;;;;20.92;86.40;96015.72;5093436;28;20882;-58
2021/06/29 08:06:02;;;;;;;1.80;1.70;;;;;;;20.87;82.20;96021.16;5080918;28;20965;-58
2021/06/29 08:08:27;;;;;;;2.50;2.03;;;;;;;20.89;85.49;96013.63;5075924;28;20206;-59
2021/06/29 08:10:52;;;;;;;2.10;2.00;;;;;;;21.07;86.04;96023.44;5075755;28;20202;-58
2021/06/29 08:13:18;;;;;;;1.87;1.77;;;;;;;20.98;82.67;96014.50;5073802;28;20195;-68
2021/06/29 08:15:44;;;;;;;2.20;2.00;;;;;;;20.89;84.01;96012.88;5075609;28;20545;-68
2021/06/29 08:18:09;;;;;;;2.00;1.70;;;;;;;20.77;81.52;96009.91;5092222;28;20217;-58
2021/06/29 08:20:35;;;;;;;1.70;1.70;;;;;;;21.14;83.64;96007.78;5095937;28;20801;-58
2021/06/29 08:23:01;;;;;;;1.90;1.80;;;;;;;21.38;82.72;96007.53;5095247;28;20176;-59
2021/06/29 08:25:28;;;;;;;3.37;2.00;;;;;;;21.45;81.08;96002.56;5095868;28;20170;-68
2021/06/29 08:27:53;;;;;;;1.40;1.30;;;;;;;21.39;77.44;96006.44;5095776;28;20169;-68
2021/06/29 08:30:19;;;;;;;1.83;1.60;;;;;;;21.46;75.43;96004.13;5095716;28;20455;-59
2021/06/29 08:32:44;;;;;;;1.80;1.70;;;;;;;21.62;77.36;96000.00;5079686;28;20186;-59
2021/06/29 08:35:11;;;;;;;1.70;1.60;;;;;;;21.55;76.33;95990.81;5065595;28;20225;-59
2021/06/29 08:37:37;;;;;;;1.30;1.20;;;;;;;21.22;75.39;95990.25;5095375;28;20171;-67
2021/06/29 08:40:05;;;;;;;1.30;1.30;;;;;;;21.84;74.93;95975.94;5095471;28;20886;-59
2021/06/29 08:42:34;;;;;;;1.37;1.30;;;;;;;21.80;71.51;95971.50;5095062;28;20408;-68
2021/06/29 08:45:00;;;;;;;1.07;1.07;;;;;;;21.60;73.28;95972.78;5095426;28;20911;-59
2021/06/29 08:47:26;;;;;;;2.63;1.30;;;;;;;21.54;72.99;95968.66;5084336;28;20425;-68
2021/06/29 08:49:51;;;;;;;1.70;1.60;;;;;;;21.81;75.75;95978.44;5074641;28;20456;-59
2021/06/29 08:52:17;;;;;;;1.90;1.80;;;;;;;22.06;76.23;95973.25;5074587;28;20232;-59
2021/06/29 08:54:43;;;;;;;1.47;1.33;;;;;;;22.27;74.06;95962.78;5076232;28;20222;-60
2021/06/29 08:57:09;;;;;;;1.90;1.73;;;;;;;22.67;74.86;95967.03;5095668;28;20167;-59
2021/06/29 08:59:34;;;;;;;1.70;1.60;;;;;;;22.66;72.28;95964.66;5078376;28;20787;-59
2021/06/29 09:02:02;;;;;;;1.83;1.60;;;;;;;23.03;74.11;95956.06;5074422;28;20175;-59
2021/06/29 09:04:48;;;;;;;2.10;2.00;;;;;;;23.25;74.13;95950.56;5074632;28;20273;-68
2021/06/29 09:07:20;;;;;;;1.47;1.37;;;;;;;23.08;70.94;95956.69;5074967;28;20479;-68
2021/06/29 09:09:48;;;;;;;2.10;2.00;;;;;;;22.87;71.52;95960.28;5074394;28;20985;-68
2021/06/29 09:12:13;;;;;;;2.13;2.03;;;;;;;23.19;74.01;95952.59;5073992;28;20499;-59
2021/06/29 09:14:39;;;;;;;1.80;1.70;;;;;;;22.99;71.97;95960.50;5063620;28;20954;-59
2021/06/29 09:17:21;;;;;;;1.73;1.63;;;;;;;23.19;71.37;95963.31;5083128;28;20182;-68
2021/06/29 09:19:47;;;;;;;1.93;1.83;;;;;;;23.51;73.20;95962.09;5094688;28;20189;-68
2021/06/29 09:22:27;;;;;;;2.00;1.90;;;;;;;23.54;74.80;95956.09;5094263;28;20760;-59
2021/06/29 09:24:53;;;;;;;2.33;2.10;;;;;;;23.70;74.44;95951.03;5093997;28;20432;-59
2021/06/29 09:27:39;;;;;;;1.50;1.50;;;;;;;24.00;75.36;95947.31;5094722;28;20553;-68
2021/06/29 09:30:29;;;;;;;1.90;1.80;;;;;;;23.93;70.96;95942.44;5094320;28;20455;-62
2021/06/29 09:33:08;;;;;;;1.60;1.50;;;;;;;22.98;70.66;95938.25;5075666;28;20450;-59
2021/06/29 09:35:34;;;;;;;1.60;1.50;;;;;;;23.05;74.89;95929.72;5088955;28;20432;-59
2021/06/29 09:38:00;;;;;;;1.70;1.60;;;;;;;23.25;72.74;95934.47;5094204;28;20787;-59
2021/06/29 09:40:29;;;;;;;2.10;2.00;;;;;;;23.05;72.42;95929.72;5094372;28;20404;-68
2021/06/29 09:43:28;;;;;;;2.00;1.90;;;;;;;23.22;72.45;95916.34;5093696;28;20442;-60
2021/06/29 09:45:56;;;;;;;1.60;1.50;;;;;;;23.22;78.60;95919.81;5071266;28;20432;-68
2021/06/29 09:48:40;;;;;;;1.90;1.80;;;;;;;23.64;75.48;95920.91;5094166;28;20396;-69
2021/06/29 09:51:12;;;;;;;2.17;2.00;;;;;;;23.65;71.91;95902.88;5074103;28;20814;-68
2021/06/29 09:53:47;;;;;;;2.50;2.37;;;;;;;23.92;71.32;95899.78;5073271;28;20421;-59
2021/06/29 09:56:15;;;;;;;1.80;1.70;;;;;;;23.83;72.31;95894.47;5073704;28;20517;-59
2021/06/29 09:58:44;;;;;;;2.47;2.30;;;;;;;24.12;72.58;95891.84;5056231;28;20899;-59
2021/06/29 10:01:11;;;;;;;1.63;1.50;;;;;;;24.39;68.72;95877.97;5073801;28;20538;-68
2021/06/29 10:03:38;;;;;;;2.03;1.93;;;;;;;24.37;70.27;95888.25;5074357;28;20443;-67
2021/06/29 10:06:16;;;;;;;1.87;1.77;;;;;;;24.59;74.23;95875.63;5087747;28;20772;-59
2021/06/29 10:08:47;;;;;;;2.23;2.10;;;;;;;24.72;75.98;95877.31;5081789;28;20555;-69
2021/06/29 10:11:13;;;;;;;2.37;2.27;;;;;;;24.58;69.12;95874.88;5073481;28;20449;-68
2021/06/29 10:14:00;;;;;;;1.80;1.70;;;;;;;24.81;69.99;95872.66;5073089;28;20436;-68
2021/06/29 10:16:36;;;;;;;1.77;1.67;;;;;;;25.02;72.38;95871.56;5073112;28;20424;-68
2021/06/29 10:19:59;;;;;;;2.03;1.93;;;;;;;25.07;73.42;95863.31;5073569;28;20412;-68
2021/06/29 10:21:52;;;;;;;2.37;2.17;;;;;;;25.18;74.88;95867.13;5062252;28;20436;-68
2021/06/29 10:24:21;;;;;;;3.57;1.97;;;;;;;25.23;72.43;95855.41;5074246;28;20455;-60
2021/06/29 10:26:49;;;;;;;1.80;1.70;;;;;;;25.28;74.57;95853.28;5086217;28;20420;-59
2021/06/29 10:29:17;;;;;;;2.40;1.90;;;;;;;25.39;74.75;95854.47;5091898;28;20810;-68
2021/06/29 10:31:48;;;;;;;2.30;2.20;;;;;;;25.54;74.84;95863.81;5080127;28;20425;-59
2021/06/29 10:34:15;;;;;;;3.63;1.60;;;;;;;25.43;65.43;95863.47;5073114;28;20911;-68
2021/06/29 10:36:44;;;;;;;1.83;1.73;;;;;;;25.56;65.82;95853.53;5072512;28;20443;-59
2021/06/29 10:39:14;;;;;;;2.37;2.27;;;;;;;25.86;71.86;95854.13;5073068;28;20432;-59
2021/06/29 10:41:46;;;;;;;2.20;1.77;;;;;;;25.95;68.94;95858.28;5072973;28;20400;-60
2021/06/29 10:44:14;;;;;;;1.97;1.87;;;;;;;26.09;67.24;95858.00;5073171;28;20927;-60
2021/06/29 10:46:51;;;;;;;2.00;1.90;;;;;;;26.18;66.87;95855.97;5080352;28;20420;-59
2021/06/29 10:49:35;;;;;;;2.00;1.90;;;;;;;26.25;68.69;95850.81;5093366;28;20839;-60
2021/06/29 10:52:22;;;;;;;1.70;1.60;;;;;;;26.32;65.35;95837.56;5093067;28;20427;-69
2021/06/29 10:54:50;;;;;;;1.83;1.70;;;;;;;26.16;64.51;95836.66;5093233;28;20485;-68
2021/06/29 10:57:18;;;;;;;2.70;2.07;;;;;;;25.42;62.52;95836.88;5093292;28;20770;-59
2021/06/29 10:59:48;;;;;;;3.30;1.90;;;;;;;25.35;65.08;95839.28;5089701;28;20417;-60
2021/06/29 11:02:27;;;;;;;1.90;1.80;;;;;;;25.58;63.96;95832.44;5092790;28;20411;-68
2021/06/29 11:05:05;;;;;;;2.27;2.10;;;;;;;25.75;73.62;95837.63;5093160;28;20587;-68
2021/06/29 11:07:30;;;;;;;2.00;1.90;;;;;;;25.80;75.47;95836.63;5093133;28;20557;-59
2021/06/29 11:10:14;;;;;;;1.93;1.70;;;;;;;25.98;69.59;95844.13;5074969;28;20543;-69
2021/06/29 11:12:48;;;;;;;2.10;1.50;;;;;;;25.96;63.35;95834.84;5092908;28;20166;-59
2021/06/29 11:15:15;;;;;;;1.70;1.60;;;;;;;25.67;60.35;95833.13;5082163;28;20440;-59
2021/06/29 11:17:46;;;;;;;2.13;1.80;;;;;;;25.99;62.39;95826.88;5072986;28;20408;-60
2021/06/29 11:20:13;;;;;;;1.80;1.70;;;;;;;25.78;61.62;95826.16;5072802;28;20445;-70
2021/06/29 11:23:01;;;;;;;1.43;1.30;;;;;;;25.89;62.59;95830.00;5072376;28;20412;-60
2021/06/29 11:25:42;;;;;;;1.90;1.63;;;;;;;25.71;66.70;95827.88;5072762;28;20402;-68
2021/06/29 11:28:16;;;;;;;2.00;1.90;;;;;;;26.16;68.80;95832.03;5072938;28;20409;-59
2021/06/29 11:30:47;;;;;;;1.83;1.73;;;;;;;25.91;62.29;95830.44;5079894;28;20457;-68
2021/06/29 11:33:45;;;;;;;2.10;2.00;;;;;;;25.88;64.92;95828.44;5074899;28;20420;-60